Airfield :
LOGIN :

Register | Disclaimer

   EN    FR    IT 

 










Legend :    VFR   Marginal VFR   IFR   Intensive IFR   Very Intensive IFR
Visi :
Ceiling :
>= 8 km
>= 3000ft
5 to 8 km
1000 to 3000 ft
1500m to 5 km
500 to 1000 ft
800 to 1500m
200 to 500 ft
< 800m
< 200 ft
Symbols :   Thunderstorms  Fog  Heavy snow  Heavy precipitations  Wind > 20 kt
SIGMETs :     Misc.  Thunderstorms  Icing  Turbulence  Mountain Waves  Volcanic Ashes






- Airport Elevation : 1046 ft
- IATA code : NUE


EDDN - Nuremberg

CURRENT METAR :
  • 170250Z 09002KT CAVOK 00/M00 Q1021

EXPIRED METARs :
  • 170220Z 08002KT CAVOK 00/M00 Q1021
  • 170150Z 10005KT CAVOK 00/00 Q1021
  • 170120Z 10003KT CAVOK 01/00 Q1021
  • 170050Z 31001KT CAVOK 01/01 Q1021
  • 170020Z 04001KT CAVOK 01/01 Q1021

TAF TAF EDDN
Valid from the 17 at 00:00 until the 18 at 00:00 UTC


162300Z 1700/1724 VRB03KT CAVOK
PROB30
TEMPO 1703/1708 2500 BCFG
TEMPO 1711/1716 28005KT



MET'MAP, your aeronautical weather chart ! - Copyright ORBIFLY December 2007 - Disclaimer

ORBIFLY MET'MAP TEAM :

Programming & Development : Alexandra Zaïnal
Concept & original design : Baudouin d'Aumeries
Assistance for programming : Marc-Olivier Méhu
Technical & hardware support : Manuel Goepfert

Contact : metmap@orbifly.com




SOURCES & CREDITS :

   NOAA